Time;durP1;ratioP1;P1;durP2;ratioP2;P2;SDS_P1;SDS_P2;PMS_P1;PMS_P2;Temp;Humidity;BMP_temperature;BMP_pressure;BME280_temperature;BME280_humidity;BME280_pressure;Samples;Min_cycle;Max_cycle;Signal;HPM_P1;HPM_P2
2022/05/19 00:02:06;;;;;;;3.10;2.20;;;;;;;7.33;68.31;102043.38;105050;1279;68913;-76
2022/05/19 00:04:35;;;;;;;4.90;2.20;;;;;;;7.23;69.06;102048.61;105024;1279;74019;-74
2022/05/19 00:07:05;;;;;;;2.90;1.90;;;;;;;7.14;69.43;102050.48;104965;1279;62355;-73
2022/05/19 00:09:35;;;;;;;5.60;2.20;;;;;;;7.05;69.80;102049.09;104768;1279;60584;-74
2022/05/19 00:12:10;;;;;;;6.10;2.50;;;;;;;6.99;69.61;102051.25;104924;1279;73766;-75
2022/05/19 00:14:39;;;;;;;6.50;2.80;;;;;;;6.93;69.80;102053.02;104952;1279;72436;-74
2022/05/19 00:17:08;;;;;;;5.90;2.50;;;;;;;6.89;70.23;102054.16;104948;1279;71503;-74
2022/05/19 00:19:37;;;;;;;7.50;2.60;;;;;;;6.90;70.25;102057.09;105005;1279;74007;-73
2022/05/19 00:22:06;;;;;;;5.90;2.40;;;;;;;6.87;70.36;102059.79;105037;1279;62981;-73
2022/05/19 00:24:35;;;;;;;3.40;2.30;;;;;;;6.85;70.22;102062.11;104889;1279;60635;-72
2022/05/19 00:27:04;;;;;;;3.90;2.80;;;;;;;6.82;70.27;102060.14;104982;1280;74032;-73
2022/05/19 00:29:33;;;;;;;5.30;2.30;;;;;;;6.78;70.17;102063.76;105108;1279;71076;-72
2022/05/19 00:32:02;;;;;;;5.30;2.30;;;;;;;6.77;70.52;102062.74;105247;1279;69199;-75
2022/05/19 00:34:31;;;;;;;7.80;2.90;;;;;;;6.75;70.58;102060.91;105458;1279;73580;-72
2022/05/19 00:37:03;;;;;;;4.90;2.70;;;;;;;6.72;70.45;102063.77;105250;1277;61130;-74
2022/05/19 00:39:35;;;;;;;5.40;2.40;;;;;;;6.74;70.44;102065.10;105238;1279;61884;-73
2022/05/19 00:45:00;;;;;;;4.60;2.80;;;;;;;6.73;70.21;102068.42;105227;1279;72808;-73
2022/05/19 00:47:40;;;;;;;4.50;2.50;;;;;;;6.74;70.15;102064.94;105260;1279;70259;-73
2022/05/19 00:50:40;;;;;;;6.20;2.60;;;;;;;6.73;70.49;102068.42;105094;1279;72013;-75
2022/05/19 00:53:38;;;;;;;4.50;2.20;;;;;;;6.72;70.86;102070.17;105081;1279;61598;-74
2022/05/19 00:56:37;;;;;;;3.50;2.30;;;;;;;6.71;70.84;102071.97;105083;1279;60303;-72
2022/05/19 00:59:11;;;;;;;5.10;2.30;;;;;;;6.71;70.99;102068.16;105232;1279;72656;-72
2022/05/19 01:01:44;;;;;;;4.60;2.40;;;;;;;6.72;71.13;102065.34;105151;1279;72453;-72
2022/05/19 01:04:23;;;;;;;3.70;2.30;;;;;;;6.75;71.52;102064.88;105099;1279;68121;-75
2022/05/19 01:07:00;;;;;;;5.40;2.40;;;;;;;6.77;71.12;102066.02;105356;1279;72181;-71
2022/05/19 01:09:34;;;;;;;4.70;2.30;;;;;;;6.80;71.06;102064.88;105071;1279;63208;-69
2022/05/19 01:12:06;;;;;;;4.20;2.40;;;;;;;6.84;71.25;102061.10;105064;1279;60178;-69
2022/05/19 01:14:35;;;;;;;4.50;2.80;;;;;;;6.87;71.21;102058.74;105080;1279;74613;-71
2022/05/19 01:17:06;;;;;;;4.60;2.60;;;;;;;6.91;71.39;102057.91;105900;1279;70916;-71
2022/05/19 01:19:47;;;;;;;4.50;2.50;;;;;;;6.94;71.24;102061.09;104993;1279;68590;-70
2022/05/19 01:22:17;;;;;;;3.80;2.30;;;;;;;6.97;70.85;102060.81;104984;1279;74238;-71
2022/05/19 01:25:21;;;;;;;5.80;3.00;;;;;;;7.03;70.74;102065.27;104989;1278;63737;-73
2022/05/19 01:27:50;;;;;;;6.00;2.60;;;;;;;7.11;70.09;102063.09;104945;1279;59550;-72
2022/05/19 01:30:20;;;;;;;6.00;2.80;;;;;;;7.15;69.84;102063.80;104870;1279;72111;-73
2022/05/19 01:32:52;;;;;;;4.60;2.80;;;;;;;7.25;69.96;102061.02;104849;1280;71380;-73
2022/05/19 01:35:22;;;;;;;5.20;3.00;;;;;;;7.32;69.90;102062.99;104831;1279;70809;-73
2022/05/19 01:37:51;;;;;;;4.50;2.60;;;;;;;7.38;69.38;102051.67;104932;1279;74966;-71
2022/05/19 01:41:10;;;;;;;3.50;2.10;;;;;;;7.43;68.97;102065.38;104926;1279;63111;-71
2022/05/19 01:44:01;;;;;;;3.60;2.50;;;;;;;7.42;69.05;102068.15;105045;1279;60579;-71
2022/05/19 01:46:35;;;;;;;6.00;2.60;;;;;;;7.43;68.93;102068.66;105043;1279;74357;-70
2022/05/19 01:49:25;;;;;;;6.40;2.50;;;;;;;7.47;68.33;102068.86;104950;1279;73337;-70
2022/05/19 01:52:12;;;;;;;6.00;2.40;;;;;;;7.48;68.42;102070.05;105004;1279;69792;-73
2022/05/19 01:54:56;;;;;;;7.10;3.10;;;;;;;7.47;68.46;102070.42;105016;1279;74404;-70
2022/05/19 01:57:31;;;;;;;7.90;2.80;;;;;;;7.47;68.25;102072.50;105081;1279;60328;-70
2022/05/19 02:00:24;;;;;;;4.90;2.60;;;;;;;7.48;69.29;102072.48;105061;1279;59961;-73
2022/05/19 02:03:26;;;;;;;6.60;2.70;;;;;;;7.50;69.01;102078.79;105028;1279;73138;-70
2022/05/19 02:06:14;;;;;;;5.60;2.60;;;;;;;7.47;68.46;102080.48;104897;1279;72445;-72
2022/05/19 02:08:53;;;;;;;4.80;2.50;;;;;;;7.45;68.62;102082.80;104973;1279;70094;-71
2022/05/19 02:11:48;;;;;;;5.70;2.70;;;;;;;7.42;68.50;102084.63;105071;1279;73815;-71
2022/05/19 02:14:27;;;;;;;7.30;2.90;;;;;;;7.40;68.67;102091.63;104991;1279;59664;-74
2022/05/19 02:16:58;;;;;;;7.10;3.10;;;;;;;7.40;68.74;102088.70;104813;1279;60040;-71
2022/05/19 02:19:36;;;;;;;5.20;2.70;;;;;;;7.41;68.51;102090.39;104736;1279;74682;-70
2022/05/19 02:22:09;;;;;;;4.80;3.20;;;;;;;7.40;68.81;102095.46;104819;1279;69952;-71
2022/05/19 02:24:44;;;;;;;4.80;3.10;;;;;;;7.37;67.80;102093.31;104808;1282;69131;-70
2022/05/19 02:27:34;;;;;;;7.10;2.80;;;;;;;7.40;67.73;102098.42;104988;1279;72128;-71
2022/05/19 02:30:10;;;;;;;4.50;2.70;;;;;;;7.43;69.73;102102.45;104984;1279;61613;-71
2022/05/19 02:32:39;;;;;;;7.10;3.80;;;;;;;7.42;70.15;102105.77;105179;1279;60111;-74
2022/05/19 02:35:09;;;;;;;9.70;3.40;;;;;;;7.42;70.97;102107.86;105228;1279;72899;-75
2022/05/19 02:37:38;;;;;;;5.30;3.20;;;;;;;7.41;70.99;102113.63;105167;1278;71597;-72
2022/05/19 02:40:12;;;;;;;5.90;2.70;;;;;;;7.37;71.47;102114.27;104926;1279;69238;-71
2022/05/19 02:42:41;;;;;;;6.60;2.90;;;;;;;7.35;71.95;102113.00;104934;1279;71384;-72
2022/05/19 02:45:13;;;;;;;8.50;3.00;;;;;;;7.32;71.72;102118.13;104880;1279;60988;-72
2022/05/19 02:47:42;;;;;;;5.10;2.80;;;;;;;7.30;71.86;102118.36;104958;1278;61817;-74
2022/05/19 02:50:13;;;;;;;8.90;3.60;;;;;;;7.29;71.47;102120.50;104946;1279;73696;-73
2022/05/19 02:52:43;;;;;;;3.50;2.50;;;;;;;7.25;69.67;102125.29;105002;1279;72075;-73
2022/05/19 02:55:13;;;;;;;8.50;3.30;;;;;;;7.25;69.10;102128.44;104765;1280;68470;-72
2022/05/19 02:57:43;;;;;;;7.00;2.70;;;;;;;7.25;68.79;102125.65;104820;1282;72247;-74
2022/05/19 03:00:17;;;;;;;6.80;2.70;;;;;;;7.26;68.71;102126.30;105169;1282;59882;-74
2022/05/19 03:02:47;;;;;;;4.80;2.60;;;;;;;7.28;68.24;102126.58;105239;1279;61335;-74
2022/05/19 03:05:22;;;;;;;2.90;2.00;;;;;;;7.33;68.63;102125.55;105296;1279;74508;-73
2022/05/19 03:07:51;;;;;;;6.20;2.50;;;;;;;7.41;67.73;102125.42;104904;1279;70533;-72
2022/05/19 03:10:20;;;;;;;3.40;2.30;;;;;;;7.52;67.46;102126.05;104896;1279;70331;-73
2022/05/19 03:12:50;;;;;;;5.40;2.80;;;;;;;7.61;67.28;102128.48;105063;1279;74258;-74
2022/05/19 03:15:19;;;;;;;5.30;2.60;;;;;;;7.69;67.13;102127.48;105155;1280;62213;-72
2022/05/19 03:17:48;;;;;;;5.70;2.50;;;;;;;7.77;66.84;102126.31;104984;1279;59735;-73
2022/05/19 03:20:18;;;;;;;9.60;2.90;;;;;;;7.84;66.60;102127.09;104787;1280;72665;-73
2022/05/19 03:22:47;;;;;;;8.50;3.10;;;;;;;7.91;66.23;102129.60;104853;1280;72504;-72
2022/05/19 03:25:17;;;;;;;7.70;2.70;;;;;;;7.98;65.87;102131.42;105078;1279;70094;-77
2022/05/19 03:27:46;;;;;;;6.00;2.50;;;;;;;8.07;65.70;102136.94;105351;1279;73566;-77
2022/05/19 03:30:17;;;;;;;5.40;2.60;;;;;;;8.09;65.31;102124.58;105505;1279;62058;-76
2022/05/19 03:32:45;;;;;;;6.00;2.90;;;;;;;8.24;65.17;102141.48;105419;1280;59830;-71
2022/05/19 03:35:16;;;;;;;6.50;2.70;;;;;;;8.32;65.00;102145.86;104923;1279;73421;-73
2022/05/19 03:37:45;;;;;;;5.60;2.60;;;;;;;8.37;65.15;102150.02;104765;1279;71778;-71
2022/05/19 03:40:16;;;;;;;5.50;2.60;;;;;;;8.42;64.68;102148.07;104904;1279;68506;-71
2022/05/19 03:42:45;;;;;;;5.70;2.30;;;;;;;8.48;64.64;102149.04;104637;1282;71585;-71
2022/05/19 03:45:14;;;;;;;8.50;2.60;;;;;;;8.53;64.04;102152.15;104854;1279;59643;-72
2022/05/19 03:47:43;;;;;;;4.70;2.30;;;;;;;8.59;63.93;102151.23;104756;1280;60353;-72
2022/05/19 03:50:12;;;;;;;6.80;2.60;;;;;;;8.60;63.77;102150.12;104781;1282;73580;-73
2022/05/19 03:52:43;;;;;;;4.10;2.60;;;;;;;8.61;63.73;102156.70;105067;1279;69743;-73
2022/05/19 03:55:14;;;;;;;5.60;2.50;;;;;;;8.63;63.42;102158.85;104991;1279;70851;-73
2022/05/19 03:57:42;;;;;;;5.30;2.60;;;;;;;8.64;63.40;102160.04;105163;1279;74195;-75
2022/05/19 04:00:13;;;;;;;7.50;2.90;;;;;;;8.66;63.60;102160.13;105091;1279;59774;-76
2022/05/19 04:02:42;;;;;;;4.90;2.40;;;;;;;8.66;63.46;102159.41;104899;1282;61446;-72
2022/05/19 04:05:13;;;;;;;5.70;2.60;;;;;;;8.64;63.83;102156.72;105217;1279;75405;-77
2022/05/19 04:07:43;;;;;;;7.90;2.60;;;;;;;8.71;63.76;102160.79;105044;1279;72049;-76
2022/05/19 04:10:12;;;;;;;5.40;2.50;;;;;;;8.74;63.70;102167.77;104823;1280;71095;-76
2022/05/19 04:12:43;;;;;;;4.10;2.20;;;;;;;8.80;63.48;102172.08;105113;1279;73061;-75
2022/05/19 04:15:13;;;;;;;7.60;2.20;;;;;;;8.87;63.21;102169.85;105255;1279;59903;-77
2022/05/19 04:17:42;;;;;;;5.30;2.30;;;;;;;8.87;63.20;102173.69;105296;1279;60671;-74
2022/05/19 04:20:11;;;;;;;5.20;2.50;;;;;;;8.98;62.70;102173.00;104973;1279;71970;-75
2022/05/19 04:22:40;;;;;;;7.50;2.70;;;;;;;9.05;62.60;102171.88;105476;1280;70148;-76
2022/05/19 04:25:11;;;;;;;6.20;2.60;;;;;;;9.13;62.34;102175.17;105063;1279;70075;-75
2022/05/19 04:27:40;;;;;;;3.10;2.40;;;;;;;9.21;62.16;102183.20;104953;1279;74528;-75
2022/05/19 04:30:10;;;;;;;5.00;2.70;;;;;;;9.26;62.15;102176.34;104921;1279;59716;-75
2022/05/19 04:32:45;;;;;;;5.20;2.40;;;;;;;9.36;62.03;102178.69;105091;1280;59101;-75
2022/05/19 04:35:15;;;;;;;6.70;2.80;;;;;;;9.47;62.16;102175.42;105191;1280;72665;-75
2022/05/19 04:37:45;;;;;;;8.20;3.10;;;;;;;9.57;61.40;102173.61;105237;1279;69393;-74
2022/05/19 04:40:16;;;;;;;7.20;2.30;;;;;;;9.66;60.83;102175.60;105260;1279;69857;-76
2022/05/19 04:42:45;;;;;;;4.20;2.70;;;;;;;9.74;60.70;102178.37;105262;1279;72266;-75
2022/05/19 04:45:17;;;;;;;7.00;2.80;;;;;;;9.83;60.48;102175.02;105084;1280;59571;-76
2022/05/19 04:47:47;;;;;;;4.10;2.30;;;;;;;9.95;59.92;102179.15;105255;1279;61972;-76
2022/05/19 04:50:16;;;;;;;5.20;2.50;;;;;;;10.07;59.62;102172.70;105318;1279;74848;-77
2022/05/19 04:52:52;;;;;;;6.10;2.30;;;;;;;10.17;59.01;102172.02;105778;1279;71073;-77
2022/05/19 04:55:23;;;;;;;10.70;2.40;;;;;;;10.25;58.42;102174.11;106047;1279;69995;-79
2022/05/19 04:57:52;;;;;;;8.50;3.10;;;;;;;10.32;58.44;102173.58;105868;1279;73204;-78
2022/05/19 05:00:22;;;;;;;8.90;2.60;;;;;;;10.35;57.93;102174.17;105680;1279;60913;-79
2022/05/19 05:02:50;;;;;;;4.00;2.50;;;;;;;10.45;58.02;102175.27;105868;1279;61447;-78
2022/05/19 05:05:20;;;;;;;6.00;3.20;;;;;;;10.48;58.06;102176.67;106205;1279;73871;-77
2022/05/19 05:07:51;;;;;;;9.20;2.90;;;;;;;10.47;58.25;102175.14;105961;1279;71267;-79
2022/05/19 05:10:20;;;;;;;5.70;3.40;;;;;;;10.55;57.97;102177.21;105971;1280;68510;-78
2022/05/19 05:12:49;;;;;;;7.30;2.80;;;;;;;10.64;58.12;102174.65;106250;1279;74113;-79
2022/05/19 05:15:18;;;;;;;6.60;2.90;;;;;;;10.64;57.80;102168.54;106249;1279;60544;-80
2022/05/19 05:17:49;;;;;;;5.90;2.20;;;;;;;10.76;57.76;102167.42;106497;1279;61128;-77
2022/05/19 05:20:42;;;;;;;4.10;2.50;;;;;;;10.84;57.69;102166.19;106695;1272;73725;-79
2022/05/19 05:23:12;;;;;;;6.20;3.10;;;;;;;10.99;57.71;102169.61;107086;1276;71109;-82
2022/05/19 05:25:42;;;;;;;6.40;2.50;;;;;;;11.14;57.38;102172.33;106755;1279;70760;-79
2022/05/19 05:28:11;;;;;;;5.90;2.50;;;;;;;11.28;57.18;102166.84;106792;1279;72642;-80
2022/05/19 05:30:40;;;;;;;8.60;2.90;;;;;;;11.40;56.87;102164.66;105854;1279;59654;-74
2022/05/19 05:33:12;;;;;;;5.60;2.90;;;;;;;11.53;56.98;102158.92;105143;1278;60851;-75
2022/05/19 05:35:43;;;;;;;8.00;3.50;;;;;;;11.67;56.57;102157.33;105156;1277;73701;-74
2022/05/19 05:38:12;;;;;;;5.00;2.30;;;;;;;11.83;56.24;102159.23;105027;1277;70372;-74
2022/05/19 05:40:41;;;;;;;12.90;5.00;;;;;;;11.97;55.63;102155.52;105148;1277;68898;-72
2022/05/19 05:43:16;;;;;;;6.60;2.60;;;;;;;12.09;55.50;102160.98;105280;1277;72268;-75
2022/05/19 05:45:47;;;;;;;5.40;2.80;;;;;;;12.19;54.97;102157.27;105163;1279;59697;-74
2022/05/19 05:48:18;;;;;;;6.10;3.20;;;;;;;12.30;55.07;102156.15;105261;1277;60763;-74
2022/05/19 05:50:47;;;;;;;3.80;2.30;;;;;;;12.40;54.41;102162.20;107222;1276;74219;-73
2022/05/19 05:53:16;;;;;;;5.30;2.30;;;;;;;12.53;53.31;102162.33;107225;1276;71513;-74
2022/05/19 05:55:46;;;;;;;7.20;2.20;;;;;;;12.54;53.36;102163.13;107253;1278;70859;-76
2022/05/19 05:58:16;;;;;;;5.00;2.70;;;;;;;12.63;53.26;102155.95;107346;1276;72948;-74
2022/05/19 06:00:45;;;;;;;4.60;2.30;;;;;;;12.73;52.96;102156.23;107018;1276;61851;-73
2022/05/19 06:03:14;;;;;;;3.50;2.10;;;;;;;12.83;52.60;102159.34;105463;1278;60452;-74
2022/05/19 06:05:43;;;;;;;3.90;2.40;;;;;;;12.93;52.64;102154.90;105049;1279;72982;-75
2022/05/19 06:08:12;;;;;;;5.70;2.50;;;;;;;13.03;51.92;102157.84;105400;1279;70841;-74
2022/05/19 06:10:42;;;;;;;6.30;2.60;;;;;;;13.13;51.69;102163.84;105404;1279;68807;-74
2022/05/19 06:13:11;;;;;;;4.90;2.00;;;;;;;13.27;51.21;102159.04;105454;1277;73324;-75
2022/05/19 06:15:40;;;;;;;5.80;2.40;;;;;;;13.36;50.96;102154.27;105195;1279;59866;-74
2022/05/19 06:18:10;;;;;;;4.00;2.30;;;;;;;13.43;51.12;102155.58;105298;1277;60160;-74
2022/05/19 06:20:40;;;;;;;3.60;2.20;;;;;;;13.54;50.86;102157.69;105487;1276;72692;-73
2022/05/19 06:23:11;;;;;;;4.50;2.30;;;;;;;13.63;50.75;102157.84;105456;1276;70827;-73
2022/05/19 06:25:46;;;;;;;3.70;2.20;;;;;;;13.79;50.74;102158.25;105346;1277;68581;-74
2022/05/19 06:28:15;;;;;;;5.20;2.50;;;;;;;13.98;49.78;102158.59;105344;1276;74170;-73
2022/05/19 06:30:44;;;;;;;4.60;2.10;;;;;;;14.01;48.95;102144.21;105182;1276;61281;-74
2022/05/19 06:33:17;;;;;;;6.00;2.30;;;;;;;14.17;48.61;102160.41;105246;1276;61206;-74
2022/05/19 06:35:46;;;;;;;7.80;2.40;;;;;;;14.25;47.87;102160.16;105209;1277;74365;-76
2022/05/19 06:38:15;;;;;;;6.00;2.40;;;;;;;14.30;48.19;102161.98;105344;1279;70124;-73
2022/05/19 06:40:45;;;;;;;5.10;2.70;;;;;;;14.41;48.30;102157.44;105258;1276;68875;-74
2022/05/19 06:43:14;;;;;;;4.20;2.30;;;;;;;14.48;47.95;102162.20;105154;1276;73232;-74
2022/05/19 06:45:45;;;;;;;8.40;2.40;;;;;;;14.53;47.77;102161.02;105160;1276;59889;-73
2022/05/19 06:48:13;;;;;;;9.30;3.00;;;;;;;14.62;47.57;102162.36;105106;1276;62450;-74
2022/05/19 06:50:42;;;;;;;3.50;2.40;;;;;;;14.68;47.39;102156.55;105272;1277;72518;-75
2022/05/19 06:53:12;;;;;;;3.70;2.10;;;;;;;14.78;47.57;102153.02;105199;1277;70282;-74
2022/05/19 06:55:41;;;;;;;7.50;2.30;;;;;;;14.96;47.11;102155.14;105268;1276;70217;-74
2022/05/19 06:58:10;;;;;;;4.00;1.80;;;;;;;15.13;45.55;102152.09;105382;1277;72607;-73
2022/05/19 07:00:41;;;;;;;3.30;1.90;;;;;;;15.16;44.33;102152.73;105304;1277;60610;-73
2022/05/19 07:03:10;;;;;;;5.40;1.80;;;;;;;15.15;44.53;102151.23;105177;1276;60427;-73
2022/05/19 07:05:40;;;;;;;6.50;2.10;;;;;;;15.15;44.28;102152.66;105229;1276;72639;-73
2022/05/19 07:08:09;;;;;;;6.30;2.10;;;;;;;15.18;44.85;102145.79;105322;1276;72469;-73
2022/05/19 07:10:38;;;;;;;5.50;1.90;;;;;;;15.31;45.00;102141.86;105400;1276;71209;-74
2022/05/19 07:13:06;;;;;;;3.60;1.50;;;;;;;15.43;42.51;102139.07;105364;1276;74972;-74
2022/05/19 07:15:37;;;;;;;3.10;1.50;;;;;;;15.58;41.57;102135.73;105424;1276;59729;-75
2022/05/19 07:18:10;;;;;;;3.50;1.30;;;;;;;15.64;40.49;102137.09;105362;1276;59808;-74
2022/05/19 07:20:44;;;;;;;3.10;1.80;;;;;;;15.69;39.23;102137.85;105311;1277;73200;-74
2022/05/19 07:23:20;;;;;;;3.50;1.50;;;;;;;15.62;40.52;102132.67;105346;1277;70221;-73
2022/05/19 07:25:50;;;;;;;4.00;1.30;;;;;;;15.82;40.37;102147.26;105411;1276;69360;-75
2022/05/19 07:28:20;;;;;;;2.90;1.20;;;;;;;15.91;38.85;102136.77;105455;1279;70302;-75
2022/05/19 07:30:49;;;;;;;3.50;1.30;;;;;;;16.02;37.90;102132.64;105431;1276;60727;-73
2022/05/19 07:33:20;;;;;;;2.60;1.20;;;;;;;16.06;36.81;102128.05;105352;1276;59186;-74
2022/05/19 07:35:50;;;;;;;2.30;1.10;;;;;;;16.08;36.37;102131.61;105346;1276;72640;-73
2022/05/19 07:38:19;;;;;;;2.30;1.00;;;;;;;16.11;36.31;102128.92;105252;1276;70435;-76
2022/05/19 07:40:54;;;;;;;2.30;1.30;;;;;;;16.22;37.12;102129.02;105351;1276;70295;-74
2022/05/19 07:43:38;;;;;;;3.60;1.50;;;;;;;16.35;37.39;102135.43;105255;1276;73770;-73
2022/05/19 07:46:08;;;;;;;3.70;1.50;;;;;;;16.38;38.05;102125.16;105310;1276;61017;-76
2022/05/19 07:48:38;;;;;;;5.00;1.40;;;;;;;16.46;37.99;102127.57;105333;1276;59784;-77
2022/05/19 07:51:07;;;;;;;1.50;1.00;;;;;;;16.46;36.93;102122.48;105370;1276;75737;-74
2022/05/19 07:53:36;;;;;;;4.10;1.40;;;;;;;16.41;36.91;102120.92;105422;1276;69577;-76
2022/05/19 07:56:05;;;;;;;3.50;1.50;;;;;;;16.46;36.06;102116.72;105316;1276;68878;-73
2022/05/19 07:58:34;;;;;;;3.50;1.50;;;;;;;16.41;35.99;102116.67;105317;1276;72094;-75
2022/05/19 08:01:04;;;;;;;3.10;1.30;;;;;;;16.56;36.28;102115.05;105312;1277;60758;-73
2022/05/19 08:03:33;;;;;;;4.70;1.40;;;;;;;16.70;35.53;102108.36;105320;1276;60650;-74
2022/05/19 08:06:04;;;;;;;2.70;1.40;;;;;;;16.68;35.59;102110.99;104777;1276;706101;-74
2022/05/19 08:08:37;;;;;;;4.10;1.50;;;;;;;16.86;35.00;102109.83;105349;1276;70626;-73
2022/05/19 08:11:07;;;;;;;2.30;1.50;;;;;;;16.84;34.51;102104.18;105253;1276;70378;-74
2022/05/19 08:16:23;;;;;;;2.90;1.50;;;;;;;16.83;35.53;102121.84;105162;1276;60534;-74
2022/05/19 08:18:53;;;;;;;3.70;1.40;;;;;;;16.85;35.25;102106.59;105088;1276;62035;-73
2022/05/19 08:21:22;;;;;;;2.70;1.40;;;;;;;16.86;35.35;102106.33;105082;1276;75087;-74
2022/05/19 08:23:52;;;;;;;3.20;1.50;;;;;;;16.90;36.01;102112.14;105196;1277;73300;-74
2022/05/19 08:26:21;;;;;;;5.60;1.30;;;;;;;17.01;35.14;102103.16;105146;1276;70815;-74
2022/05/19 08:28:51;;;;;;;3.30;1.20;;;;;;;17.08;33.52;102096.34;105264;1276;74501;-73
2022/05/19 08:31:24;;;;;;;1.50;1.00;;;;;;;17.09;32.33;102109.75;105164;1276;60241;-74
2022/05/19 08:33:54;;;;;;;2.40;1.30;;;;;;;17.07;32.77;102102.00;105138;1276;59603;-76
2022/05/19 08:36:25;;;;;;;3.20;1.30;;;;;;;17.16;33.31;102097.08;105124;1277;75725;-74
2022/05/19 08:38:54;;;;;;;4.00;1.50;;;;;;;17.28;33.86;102094.61;105098;1276;71765;-76
2022/05/19 08:41:37;;;;;;;3.70;1.40;;;;;;;17.39;34.30;102096.02;105155;1276;68246;-75
2022/05/19 08:44:30;;;;;;;3.50;1.40;;;;;;;17.54;34.22;102090.20;105056;1277;73271;-75
2022/05/19 08:47:02;;;;;;;2.30;1.20;;;;;;;17.67;34.02;102092.02;105144;1276;59718;-78
2022/05/19 08:49:58;;;;;;;2.10;1.00;;;;;;;17.71;34.39;102090.27;105144;1276;59553;-74
2022/05/19 08:52:37;;;;;;;1.50;1.00;;;;;;;17.82;31.46;102093.09;105236;1276;73716;-73
2022/05/19 08:55:12;;;;;;;1.80;1.10;;;;;;;17.90;30.83;102087.16;105310;1276;70968;-76
2022/05/19 08:57:55;;;;;;;2.70;1.00;;;;;;;17.88;30.62;102090.35;105351;1276;71104;-73
2022/05/19 09:00:55;;;;;;;;;;;;;;;17.82;30.18;102086.35;105371;1276;73633;-74
2022/05/19 09:03:39;;;;;;;2.30;1.10;;;;;;;17.89;30.55;102083.04;105669;1276;62281;-75
2022/05/19 09:06:35;;;;;;;3.70;1.40;;;;;;;17.95;31.21;102090.08;105638;1277;59548;-74
2022/05/19 09:09:26;;;;;;;2.90;1.40;;;;;;;17.94;30.73;102084.48;105652;1276;73944;-74
2022/05/19 09:12:08;;;;;;;2.10;1.20;;;;;;;17.99;31.00;102067.16;105716;1276;71918;-76
2022/05/19 09:14:39;;;;;;;1.30;1.00;;;;;;;18.14;30.80;102080.54;105617;1277;68448;-75
2022/05/19 09:17:12;;;;;;;2.10;1.20;;;;;;;18.19;30.73;102078.23;105285;1279;74185;-74
2022/05/19 09:20:01;;;;;;;2.00;1.00;;;;;;;18.24;31.20;102071.59;105335;1276;61372;-74
2022/05/19 09:22:33;;;;;;;3.00;0.90;;;;;;;18.24;31.18;102078.69;105460;1276;59624;-76
2022/05/19 09:25:09;;;;;;;4.10;1.20;;;;;;;18.22;31.25;102071.48;105601;1276;72557;-74
2022/05/19 09:27:42;;;;;;;2.00;1.10;;;;;;;18.37;31.91;102065.25;105565;1276;70140;-76
2022/05/19 09:30:36;;;;;;;3.40;1.30;;;;;;;18.58;30.96;102073.86;105680;1276;70106;-78
2022/05/19 09:33:14;;;;;;;1.80;1.10;;;;;;;18.76;29.83;102069.59;105615;1276;73908;-76
2022/05/19 09:35:58;;;;;;;6.50;1.30;;;;;;;18.76;29.23;102065.47;105590;1276;62504;-74
2022/05/19 09:38:43;;;;;;;1.80;1.10;;;;;;;18.70;29.21;102062.11;105568;1276;59874;-74
2022/05/19 09:41:39;;;;;;;4.80;1.30;;;;;;;18.73;29.75;102055.36;105442;1276;74186;-73
2022/05/19 09:44:16;;;;;;;4.60;1.60;;;;;;;18.95;30.30;102062.32;105523;1276;70206;-74
2022/05/19 09:46:50;;;;;;;1.80;1.00;;;;;;;19.09;29.81;102062.98;105593;1276;68916;-76
2022/05/19 09:49:34;;;;;;;2.10;1.30;;;;;;;19.12;29.16;102060.48;105488;1276;72186;-76
2022/05/19 09:52:05;;;;;;;1.90;1.20;;;;;;;19.12;29.79;102044.02;105399;1276;61250;-77
2022/05/19 09:54:35;;;;;;;2.40;1.00;;;;;;;19.16;30.15;102044.53;105386;1276;57999;-75
2022/05/19 09:57:16;;;;;;;11.70;1.40;;;;;;;19.18;29.03;102046.49;105240;1276;73722;-73
2022/05/19 09:59:48;;;;;;;2.60;1.20;;;;;;;19.16;28.73;102042.61;105307;1276;73211;-75
2022/05/19 10:02:44;;;;;;;2.80;1.20;;;;;;;19.28;28.89;102033.62;105355;1276;60818;-74
2022/05/19 10:05:49;;;;;;;2.20;1.10;;;;;;;19.39;28.51;102030.20;105335;1276;74077;-75
2022/05/19 10:08:25;;;;;;;1.50;1.00;;;;;;;19.48;28.67;102028.63;105264;1276;60016;-74
2022/05/19 10:11:18;;;;;;;2.40;1.10;;;;;;;19.57;28.28;102023.23;105284;1276;59113;-76
2022/05/19 10:14:02;;;;;;;2.20;1.10;;;;;;;19.71;27.98;102023.04;105338;1276;63097;-75
2022/05/19 10:17:00;;;;;;;2.30;1.00;;;;;;;19.78;27.72;102026.13;105318;1276;60981;-74
2022/05/19 10:20:06;;;;;;;2.70;1.10;;;;;;;19.85;26.93;102024.65;105298;1276;70055;-76
2022/05/19 10:23:10;;;;;;;2.50;1.00;;;;;;;20.09;28.14;102021.02;105426;1276;73753;-76
2022/05/19 10:25:58;;;;;;;2.60;1.20;;;;;;;20.29;28.26;102012.58;105290;1276;60866;-75
2022/05/19 10:31:53;;;;;;;6.50;1.20;;;;;;;20.89;27.75;102006.63;105347;1276;74452;-75
2022/05/19 10:34:53;;;;;;;3.50;1.10;;;;;;;21.19;27.51;102009.74;105343;1276;62508;-77
2022/05/19 10:37:51;;;;;;;2.90;1.20;;;;;;;21.43;26.64;102006.02;105321;1276;60121;-76
2022/05/19 10:41:06;;;;;;;1.30;1.00;;;;;;;21.60;25.96;102005.36;105306;1276;63406;-74
2022/05/19 10:44:08;;;;;;;3.40;1.00;;;;;;;21.50;25.43;101997.20;105356;1276;59180;-75
2022/05/19 10:47:10;;;;;;;3.70;0.90;;;;;;;21.64;25.51;101996.84;105367;1276;59503;-75
2022/05/19 10:49:58;;;;;;;1.70;1.00;;;;;;;21.73;24.51;102002.11;105305;1276;73762;-73
2022/05/19 10:52:58;;;;;;;2.30;1.00;;;;;;;21.81;24.35;101992.61;105354;1276;61694;-73
2022/05/19 10:55:57;;;;;;;1.50;0.90;;;;;;;21.96;24.87;101985.15;105408;1276;70772;-76
2022/05/19 10:58:45;;;;;;;4.50;1.00;;;;;;;22.19;24.79;101982.83;105398;1276;74457;-75
2022/05/19 11:01:32;;;;;;;2.00;1.10;;;;;;;22.25;24.96;101975.83;105516;1276;62226;-76
2022/05/19 11:04:14;;;;;;;2.00;0.90;;;;;;;22.72;24.76;101978.25;105594;1276;59548;-76
2022/05/19 11:07:10;;;;;;;2.20;0.90;;;;;;;22.84;24.28;101978.18;105445;1276;63087;-76
2022/05/19 11:10:13;;;;;;;4.20;1.10;;;;;;;22.65;24.20;101965.06;105415;1275;70215;-76
2022/05/19 11:13:18;;;;;;;2.00;1.20;;;;;;;22.91;24.09;101966.13;105420;1276;70629;-74
2022/05/19 11:16:41;;;;;;;2.70;1.10;;;;;;;22.97;23.69;101963.58;105286;1276;64353;-76
2022/05/19 11:19:36;;;;;;;3.50;1.10;;;;;;;23.09;24.10;101958.00;105277;1276;59664;-75
2022/05/19 11:22:22;;;;;;;3.10;1.10;;;;;;;23.65;23.10;101957.50;105264;1276;59525;-75
2022/05/19 11:28:12;;;;;;;4.00;1.20;;;;;;;23.38;23.51;101956.55;105313;1276;61683;-74
2022/05/19 11:31:10;;;;;;;3.40;1.20;;;;;;;23.33;23.64;101944.62;105310;1276;70806;-76
2022/05/19 11:33:42;;;;;;;2.30;1.00;;;;;;;23.57;23.74;101952.34;105256;1276;74527;-76
2022/05/19 11:36:38;;;;;;;1.50;0.90;;;;;;;23.61;23.66;101951.15;105242;1276;61579;-76
2022/05/19 11:39:37;;;;;;;3.30;1.20;;;;;;;23.80;23.29;101949.33;105272;1276;57996;-76
2022/05/19 11:42:40;;;;;;;2.90;1.00;;;;;;;23.43;23.85;101941.96;105204;1276;63860;-75
2022/05/19 11:45:45;;;;;;;3.60;1.20;;;;;;;23.85;22.83;101937.70;105259;1276;71337;-75
2022/05/19 11:55:42;;;;;;;4.20;1.20;;;;;;;24.91;21.95;101930.06;105064;1282;61309;-78
2022/05/19 11:58:29;;;;;;;5.40;1.00;;;;;;;24.83;22.21;101924.23;105312;1277;59467;-76
2022/05/19 12:01:06;;;;;;;3.80;1.10;;;;;;;25.00;22.20;101914.34;105340;1276;72671;-77
2022/05/19 12:03:56;;;;;;;2.40;1.10;;;;;;;25.11;21.87;101909.66;105430;1276;62350;-76
2022/05/19 12:06:42;;;;;;;4.20;1.00;;;;;;;25.31;21.20;101909.83;105353;1276;69854;-75
2022/05/19 12:09:44;;;;;;;1.90;0.90;;;;;;;25.30;20.98;101912.77;105279;1276;63868;-78
2022/05/19 12:12:24;;;;;;;2.30;0.90;;;;;;;25.56;19.89;101909.23;105522;1276;59599;-76
2022/05/19 12:15:24;;;;;;;3.40;1.30;;;;;;;25.30;20.15;101901.71;105638;1276;60625;-77
2022/05/19 12:18:23;;;;;;;6.60;1.10;;;;;;;25.47;19.55;101899.78;105544;1276;63728;-75
2022/05/19 12:21:41;;;;;;;3.60;1.10;;;;;;;25.87;18.96;101894.32;105300;1276;72627;-75
2022/05/19 12:24:13;;;;;;;4.50;1.10;;;;;;;25.83;19.16;101896.73;105310;1277;60062;-74